createdAt,value
2022-10-28T00:01:23.891Z,73.44
2022-10-28T00:03:57.930Z,73.68
2022-10-28T00:06:34.610Z,73.68
2022-10-28T00:09:05.716Z,73.76
2022-10-28T00:11:36.877Z,72.61
2022-10-28T00:14:07.201Z,72.56
2022-10-28T00:16:37.815Z,72.67
2022-10-28T00:19:10.011Z,73.16
2022-10-28T00:21:40.047Z,73.55
2022-10-28T00:24:10.174Z,73.58
2022-10-28T00:26:42.458Z,73.73
2022-10-28T00:29:14.790Z,74.15
2022-10-28T00:31:43.673Z,74.76
2022-10-28T00:34:15.948Z,74.65
2022-10-28T00:36:46.257Z,74.70
2022-10-28T00:39:20.733Z,74.54
2022-10-28T00:41:51.838Z,74.74
2022-10-28T00:44:41.517Z,74.55
2022-10-28T00:47:40.921Z,73.70
2022-10-28T00:50:18.518Z,73.58
2022-10-28T00:52:51.099Z,73.50
2022-10-28T00:55:21.216Z,73.82
2022-10-28T00:57:50.835Z,74.26
2022-10-28T01:00:19.327Z,74.49
2022-10-28T01:02:49.396Z,74.31
2022-10-28T01:05:30.009Z,73.57
2022-10-28T01:08:02.673Z,72.92
2022-10-28T01:10:39.958Z,73.22
2022-10-28T01:13:20.720Z,72.82
2022-10-28T01:16:13.989Z,72.83
2022-10-28T01:19:07.738Z,72.61
2022-10-28T01:21:35.625Z,72.49
2022-10-28T01:24:20.285Z,72.27
2022-10-28T01:27:26.347Z,72.05
2022-10-28T01:30:17.061Z,72.50
2022-10-28T01:33:26.495Z,72.62
2022-10-28T01:36:40.143Z,72.74
2022-10-28T01:39:36.780Z,73.54
2022-10-28T01:42:25.735Z,74.12
2022-10-28T01:45:07.736Z,74.46
2022-10-28T01:47:47.693Z,74.95
2022-10-28T01:50:32.961Z,74.92
2022-10-28T01:53:06.664Z,75.35
2022-10-28T01:55:39.382Z,75.22
2022-10-28T01:58:11.943Z,75.77
2022-10-28T02:00:40.804Z,76.16
2022-10-28T02:03:09.850Z,75.76
2022-10-28T02:05:43.713Z,76.12
2022-10-28T02:08:11.689Z,76.33
2022-10-28T02:10:52.453Z,76.12
2022-10-28T02:13:24.724Z,76.31
2022-10-28T02:16:04.884Z,75.64
2022-10-28T02:18:53.470Z,75.80
2022-10-28T02:21:34.611Z,76.27
2022-10-28T02:24:08.730Z,76.27
2022-10-28T02:26:40.741Z,76.44
2022-10-28T02:29:17.775Z,76.27
2022-10-28T02:32:09.088Z,76.01
2022-10-28T02:34:42.278Z,76.43
2022-10-28T02:37:18.176Z,76.29
2022-10-28T02:39:50.614Z,76.19
2022-10-28T02:42:27.287Z,77.03
2022-10-28T02:45:01.670Z,77.27
2022-10-28T02:47:34.450Z,77.20
2022-10-28T02:50:07.779Z,76.63
2022-10-28T02:52:36.773Z,76.50
2022-10-28T02:55:06.688Z,76.21
2022-10-28T02:57:38.861Z,76.40
2022-10-28T03:00:11.617Z,76.92
2022-10-28T03:02:39.720Z,76.98
2022-10-28T03:05:08.196Z,76.91
2022-10-28T03:07:36.158Z,76.58
2022-10-28T03:10:04.741Z,76.06
2022-10-28T03:12:32.822Z,75.99
2022-10-28T03:15:01.919Z,75.96
2022-10-28T03:17:30.056Z,75.91
2022-10-28T03:19:58.165Z,75.91
2022-10-28T03:22:26.199Z,75.83
2022-10-28T03:24:54.205Z,75.83
2022-10-28T03:27:22.056Z,76.03
2022-10-28T03:29:49.982Z,76.23
2022-10-28T03:32:17.922Z,76.19
2022-10-28T03:34:47.488Z,76.33
2022-10-28T03:37:15.479Z,76.12
2022-10-28T03:39:43.345Z,76.31
2022-10-28T03:42:11.425Z,76.31
2022-10-28T03:44:39.393Z,76.01
2022-10-28T03:47:07.255Z,76.49
2022-10-28T03:49:35.237Z,76.99
2022-10-28T03:52:04.325Z,77.28
2022-10-28T03:54:32.194Z,77.41
2022-10-28T03:57:00.361Z,77.52
2022-10-28T03:59:28.279Z,77.55
2022-10-28T04:01:56.422Z,77.74
2022-10-28T04:04:28.307Z,77.75
2022-10-28T04:06:58.812Z,77.92
2022-10-28T04:09:26.761Z,77.97
2022-10-28T04:11:54.863Z,78.39
2022-10-28T04:14:22.838Z,78.54
2022-10-28T04:16:50.773Z,78.72
2022-10-28T04:19:18.748Z,78.58
2022-10-28T04:21:46.717Z,78.65
2022-10-28T04:24:14.597Z,78.52
2022-10-28T04:26:42.528Z,78.58
2022-10-28T04:29:10.523Z,78.71
2022-10-28T04:31:38.367Z,78.62
2022-10-28T04:34:06.360Z,79.03
2022-10-28T04:36:34.325Z,79.12
2022-10-28T04:39:02.298Z,79.33
2022-10-28T04:41:30.264Z,79.24
2022-10-28T04:43:58.339Z,79.27
2022-10-28T04:46:26.479Z,78.88
2022-10-28T04:48:54.282Z,78.70
2022-10-28T04:51:22.246Z,78.54
2022-10-28T04:53:50.104Z,78.40
2022-10-28T04:56:18.080Z,78.17
2022-10-28T04:58:47.380Z,77.70
2022-10-28T05:01:15.479Z,77.46
2022-10-28T05:03:43.838Z,77.61
2022-10-28T05:06:11.806Z,77.47
2022-10-28T05:08:39.876Z,77.20
2022-10-28T05:11:07.852Z,77.08
2022-10-28T05:13:35.812Z,77.14
2022-10-28T05:16:03.996Z,77.45
2022-10-28T05:18:31.996Z,77.37
2022-10-28T05:20:59.997Z,77.39
2022-10-28T05:23:30.910Z,77.24
2022-10-28T05:25:59.132Z,76.97
2022-10-28T05:28:27.318Z,76.97
2022-10-28T05:30:55.146Z,77.12
2022-10-28T05:33:23.086Z,77.03
2022-10-28T05:35:51.120Z,77.02
2022-10-28T05:38:19.096Z,77.21
2022-10-28T05:40:46.956Z,77.36
2022-10-28T05:43:14.936Z,77.65
2022-10-28T05:45:42.897Z,77.87
2022-10-28T05:48:10.864Z,77.99
2022-10-28T05:50:38.735Z,77.73
2022-10-28T05:53:06.703Z,77.56
2022-10-28T05:55:35.492Z,78.18
2022-10-28T05:58:03.771Z,77.39
2022-10-28T06:00:31.849Z,77.23
2022-10-28T06:03:11.097Z,77.95
2022-10-28T06:05:46.167Z,77.78
2022-10-28T06:08:14.385Z,77.17
2022-10-28T06:10:54.038Z,76.86
2022-10-28T06:13:22.616Z,76.84
2022-10-28T06:15:51.939Z,76.69
2022-10-28T06:18:21.081Z,76.72
2022-10-28T06:20:53.891Z,76.48
2022-10-28T06:23:22.694Z,76.75
2022-10-28T06:25:55.370Z,76.71
2022-10-28T06:28:23.455Z,76.12
2022-10-28T06:30:51.631Z,75.60
2022-10-28T06:33:19.910Z,75.26
2022-10-28T06:35:47.874Z,74.99
2022-10-28T06:38:15.753Z,74.67
2022-10-28T06:40:43.653Z,74.04
2022-10-28T06:43:13.128Z,73.62
2022-10-28T06:45:41.195Z,73.17
2022-10-28T06:48:10.787Z,72.34
2022-10-28T06:50:39.026Z,71.84
2022-10-28T06:53:06.901Z,71.52
2022-10-28T06:55:34.921Z,71.51
2022-10-28T06:58:03.817Z,71.05
2022-10-28T07:00:38.318Z,70.56
2022-10-28T07:03:06.393Z,70.84
2022-10-28T07:05:34.468Z,70.46
2022-10-28T07:08:02.439Z,70.51
2022-10-28T07:10:30.716Z,70.25
2022-10-28T07:12:58.655Z,69.89
2022-10-28T07:15:26.661Z,69.32
2022-10-28T07:17:58.932Z,70.03
2022-10-28T07:20:28.139Z,69.85
2022-10-28T07:23:01.129Z,69.36
2022-10-28T07:25:31.450Z,68.64
2022-10-28T07:28:00.809Z,68.51
2022-10-28T07:30:29.442Z,68.53
2022-10-28T07:33:01.277Z,68.03
2022-10-28T07:35:29.179Z,67.57
2022-10-28T07:37:58.474Z,67.28
2022-10-28T07:40:27.200Z,66.34
2022-10-28T07:42:55.529Z,66.49
2022-10-28T07:45:24.941Z,66.46
2022-10-28T07:47:53.320Z,65.58
2022-10-28T07:50:21.210Z,65.08
2022-10-28T07:52:49.156Z,64.98
2022-10-28T07:55:17.124Z,64.77
2022-10-28T07:57:44.976Z,64.47
2022-10-28T08:00:13.567Z,64.15
2022-10-28T08:02:42.355Z,63.51
2022-10-28T08:05:10.622Z,62.93
2022-10-28T08:07:39.010Z,62.70
2022-10-28T08:10:07.782Z,62.47
2022-10-28T08:12:36.157Z,61.94
2022-10-28T08:15:05.550Z,61.10
2022-10-28T08:17:33.516Z,61.19
2022-10-28T08:20:01.424Z,61.31
2022-10-28T08:22:30.072Z,60.42
2022-10-28T08:24:58.042Z,60.09
2022-10-28T08:27:26.111Z,60.26
2022-10-28T08:29:54.389Z,59.57
2022-10-28T08:32:22.230Z,58.16
2022-10-28T08:34:50.201Z,57.80
2022-10-28T08:37:18.223Z,56.93
2022-10-28T08:39:46.363Z,55.66
2022-10-28T08:42:35.835Z,53.65
2022-10-28T08:45:04.324Z,52.15
2022-10-28T08:47:54.920Z,51.82
2022-10-28T08:50:28.015Z,50.39
2022-10-28T08:53:02.569Z,49.17
2022-10-28T08:55:44.740Z,48.48
2022-10-28T08:58:33.494Z,47.84
2022-10-28T09:01:01.997Z,46.08
2022-10-28T09:03:44.489Z,45.53
2022-10-28T09:06:12.460Z,45.97
2022-10-28T09:08:46.851Z,44.67
2022-10-28T09:11:26.282Z,45.09
2022-10-28T09:14:16.197Z,44.69
2022-10-28T09:16:50.926Z,42.46
2022-10-28T09:19:24.940Z,42.27
2022-10-28T09:22:22.200Z,41.77
2022-10-28T09:25:01.915Z,41.11
2022-10-28T09:27:54.715Z,40.17
2022-10-28T09:30:54.507Z,39.52
2022-10-28T09:33:37.340Z,39.71
2022-10-28T09:36:06.299Z,40.02
2022-10-28T09:38:37.894Z,40.40
2022-10-28T09:41:18.536Z,38.50
2022-10-28T09:43:52.288Z,39.52
2022-10-28T09:46:22.578Z,39.74
2022-10-28T09:48:57.909Z,38.35
2022-10-28T09:51:34.544Z,39.15
2022-10-28T09:54:02.762Z,37.70
2022-10-28T09:56:31.118Z,36.76
2022-10-28T09:59:03.240Z,36.95
2022-10-28T10:01:38.089Z,36.30
2022-10-28T10:04:18.700Z,35.12
2022-10-28T10:06:52.019Z,34.83
2022-10-28T10:09:26.322Z,34.72
2022-10-28T10:12:05.862Z,33.66
2022-10-28T10:14:56.770Z,32.67
2022-10-28T10:17:31.771Z,32.39
2022-10-28T10:20:08.314Z,32.17
2022-10-28T10:22:42.070Z,31.61
2022-10-28T10:25:18.845Z,31.47
2022-10-28T10:27:55.880Z,30.95
2022-10-28T10:30:38.133Z,30.97
2022-10-28T10:33:07.808Z,31.61
2022-10-28T10:35:37.902Z,31.79
2022-10-28T10:38:07.874Z,31.47
2022-10-28T10:40:47.368Z,31.79
2022-10-28T10:43:18.463Z,32.11
2022-10-28T10:46:13.063Z,32.36
2022-10-28T10:48:42.369Z,31.78
2022-10-28T10:51:23.754Z,30.94
2022-10-28T10:54:00.953Z,30.61
2022-10-28T10:56:32.788Z,30.13
2022-10-28T10:59:03.991Z,29.59
2022-10-28T11:01:37.096Z,29.30
2022-10-28T11:04:07.550Z,28.19
2022-10-28T11:06:56.032Z,26.96
2022-10-28T11:09:38.571Z,26.12
2022-10-28T11:12:26.860Z,25.81
2022-10-28T11:15:00.017Z,24.72
2022-10-28T11:20:25.602Z,24.11
2022-10-28T11:23:16.690Z,24.23
2022-10-28T11:25:49.889Z,24.31
2022-10-28T11:28:39.264Z,24.52
2022-10-28T11:31:16.353Z,23.85
2022-10-28T11:33:50.385Z,23.12
2022-10-28T11:36:37.682Z,23.08
2022-10-28T11:39:24.290Z,22.34
2022-10-28T11:42:37.411Z,21.86
2022-10-28T11:45:11.229Z,21.56
2022-10-28T11:47:57.560Z,21.57
2022-10-28T11:50:28.449Z,21.90
2022-10-28T11:53:15.264Z,21.77
2022-10-28T11:55:54.380Z,21.51
2022-10-28T11:58:40.286Z,21.13
2022-10-28T12:01:43.943Z,20.78
2022-10-28T12:04:52.961Z,20.11
2022-10-28T12:07:36.058Z,19.82
2022-10-28T12:10:25.623Z,20.24
2022-10-28T12:13:06.126Z,19.70
2022-10-28T12:15:50.760Z,19.64
2022-10-28T12:18:37.458Z,18.99
2022-10-28T12:21:16.199Z,18.81
2022-10-28T12:23:46.709Z,18.89
2022-10-28T12:26:18.066Z,18.83
2022-10-28T12:28:54.212Z,18.94
2022-10-28T12:31:45.018Z,19.63
2022-10-28T12:34:18.488Z,20.31
2022-10-28T12:36:57.358Z,20.95
2022-10-28T12:39:33.219Z,21.09
2022-10-28T12:42:23.336Z,21.08
2022-10-28T12:44:54.795Z,20.66
2022-10-28T12:47:51.729Z,20.98
2022-10-28T12:50:32.336Z,21.41
2022-10-28T12:53:21.719Z,21.61
2022-10-28T12:55:56.307Z,21.82
2022-10-28T12:59:12.226Z,21.71
2022-10-28T13:01:41.252Z,22.85
2022-10-28T13:04:13.019Z,23.05
2022-10-28T13:06:56.537Z,22.62
2022-10-28T13:09:42.729Z,22.63
2022-10-28T13:12:53.024Z,22.55
2022-10-28T13:15:53.733Z,21.96
2022-10-28T13:18:28.077Z,22.06
2022-10-28T13:21:11.165Z,21.66
2022-10-28T13:24:14.665Z,22.03
2022-10-28T13:26:45.040Z,21.73
2022-10-28T13:29:26.340Z,21.38
2022-10-28T13:31:55.348Z,21.61
2022-10-28T13:34:33.361Z,21.39
2022-10-28T13:37:04.971Z,21.34
2022-10-28T13:39:47.402Z,21.27
2022-10-28T13:42:16.124Z,21.57
2022-10-28T13:44:55.863Z,21.53
2022-10-28T13:47:34.383Z,21.54
2022-10-28T13:50:09.730Z,21.73
2022-10-28T13:52:40.015Z,21.43
2022-10-28T13:55:14.167Z,21.58
2022-10-28T13:57:47.907Z,21.66
2022-10-28T14:00:18.756Z,22.41
2022-10-28T14:03:08.545Z,23.87
2022-10-28T14:05:36.563Z,25.57
2022-10-28T14:08:40.371Z,26.44
2022-10-28T14:11:13.664Z,27.95
2022-10-28T14:13:50.737Z,29.55
2022-10-28T14:16:27.194Z,30.84
2022-10-28T14:19:04.190Z,31.84
2022-10-28T14:21:45.107Z,33.22
2022-10-28T14:24:31.974Z,33.83
2022-10-28T14:27:05.992Z,34.59
2022-10-28T14:29:45.927Z,35.45
2022-10-28T14:32:32.660Z,36.22
2022-10-28T14:35:14.649Z,37.36
2022-10-28T14:37:58.091Z,38.27
2022-10-28T14:40:33.634Z,38.58
2022-10-28T14:43:16.953Z,39.26
2022-10-28T14:46:22.503Z,40.06
2022-10-28T14:48:53.549Z,40.75
2022-10-28T14:51:27.138Z,41.36
2022-10-28T14:53:58.952Z,42.32
2022-10-28T14:56:31.981Z,43.00
2022-10-28T14:59:15.630Z,42.88
2022-10-28T15:02:24.507Z,43.87
2022-10-28T15:05:03.383Z,44.19
2022-10-28T15:07:37.901Z,44.01
2022-10-28T15:10:20.328Z,44.24
2022-10-28T15:12:50.338Z,46.46
2022-10-28T15:15:23.146Z,46.58
2022-10-28T15:17:52.000Z,47.27
2022-10-28T15:20:22.639Z,47.21
2022-10-28T15:22:51.917Z,47.89
2022-10-28T15:25:23.196Z,48.43
2022-10-28T15:27:52.666Z,49.30
2022-10-28T15:30:24.096Z,49.77
2022-10-28T15:32:54.469Z,49.87
2022-10-28T15:35:29.962Z,50.54
2022-10-28T15:38:01.876Z,50.53
2022-10-28T15:40:34.591Z,51.15
2022-10-28T15:43:07.282Z,51.64
2022-10-28T15:45:42.102Z,52.39
2022-10-28T15:48:14.129Z,52.65
2022-10-28T15:50:42.536Z,52.96
2022-10-28T15:53:10.483Z,52.90
2022-10-28T15:56:07.005Z,53.07
2022-10-28T15:58:35.831Z,53.17
2022-10-28T16:01:08.111Z,53.31
2022-10-28T16:03:45.160Z,53.69
2022-10-28T16:06:28.940Z,54.14
2022-10-28T16:09:07.306Z,54.63
2022-10-28T16:11:41.532Z,54.97
2022-10-28T16:14:38.011Z,55.15
2022-10-28T16:17:15.418Z,55.77
2022-10-28T16:19:51.313Z,56.43
2022-10-28T16:22:19.792Z,56.71
2022-10-28T16:24:48.891Z,56.88
2022-10-28T16:27:26.898Z,57.08
2022-10-28T16:29:54.872Z,57.72
2022-10-28T16:32:31.759Z,58.04
2022-10-28T16:35:02.411Z,58.15
2022-10-28T16:37:34.955Z,58.49
2022-10-28T16:40:03.052Z,58.94
2022-10-28T16:42:31.093Z,59.19
2022-10-28T16:44:59.065Z,59.62
2022-10-28T16:47:27.230Z,59.85
2022-10-28T16:49:57.432Z,60.25
2022-10-28T16:52:29.900Z,60.42
2022-10-28T16:54:58.730Z,60.54
2022-10-28T16:57:27.750Z,61.05
2022-10-28T16:59:55.790Z,60.95
2022-10-28T17:02:35.845Z,60.89
2022-10-28T17:05:07.704Z,61.42
2022-10-28T17:07:35.670Z,61.49
2022-10-28T17:10:04.156Z,61.07
2022-10-28T17:12:32.195Z,61.27
2022-10-28T17:15:00.277Z,61.64
2022-10-28T17:17:28.227Z,61.78
2022-10-28T17:19:56.652Z,62.20
2022-10-28T17:22:24.825Z,62.50
2022-10-28T17:24:54.648Z,62.60
2022-10-28T17:27:22.753Z,62.72
2022-10-28T17:29:50.997Z,62.49
2022-10-28T17:32:19.078Z,62.70
2022-10-28T17:34:47.232Z,62.45
2022-10-28T17:37:15.194Z,62.62
2022-10-28T17:39:43.430Z,63.40
2022-10-28T17:42:11.552Z,63.76
2022-10-28T17:44:39.803Z,63.86
2022-10-28T17:47:07.787Z,64.29
2022-10-28T17:49:36.692Z,64.36
2022-10-28T17:52:04.648Z,64.42
2022-10-28T17:54:32.558Z,64.86
2022-10-28T17:57:00.587Z,64.82
2022-10-28T17:59:28.863Z,64.63
2022-10-28T18:01:57.121Z,64.43
2022-10-28T18:04:26.672Z,64.71
2022-10-28T18:06:56.151Z,64.96
2022-10-28T18:09:25.042Z,65.37
2022-10-28T18:11:52.866Z,65.85
2022-10-28T18:14:20.982Z,65.68
2022-10-28T18:16:50.492Z,64.08
2022-10-28T18:19:18.562Z,65.33
2022-10-28T18:21:46.759Z,66.63
2022-10-28T18:24:15.116Z,67.07
2022-10-28T18:26:43.183Z,66.69
2022-10-28T18:29:13.305Z,66.78
2022-10-28T18:31:44.038Z,66.68
2022-10-28T18:34:12.107Z,66.43
2022-10-28T18:36:40.291Z,66.81
2022-10-28T18:39:08.769Z,66.86
2022-10-28T18:41:41.967Z,65.70
2022-10-28T18:44:13.134Z,64.84
2022-10-28T18:46:45.097Z,65.91
2022-10-28T18:49:13.448Z,67.92
2022-10-28T18:51:41.615Z,68.63
2022-10-28T18:54:09.462Z,69.15
2022-10-28T18:56:37.665Z,69.06
2022-10-28T18:59:05.943Z,68.86
2022-10-28T19:01:34.321Z,68.87
2022-10-28T19:04:05.371Z,68.88
2022-10-28T19:06:34.455Z,68.82
2022-10-28T19:09:04.637Z,69.05
2022-10-28T19:11:34.182Z,68.96
2022-10-28T19:14:05.624Z,68.87
2022-10-28T19:16:36.169Z,69.47
2022-10-28T19:19:05.164Z,69.15
2022-10-28T19:21:34.147Z,69.26
2022-10-28T19:24:02.831Z,68.31
2022-10-28T19:26:32.134Z,67.85
2022-10-28T19:29:00.569Z,68.45
2022-10-28T19:31:30.324Z,67.85
2022-10-28T19:33:58.397Z,68.41
2022-10-28T19:36:29.754Z,68.30
2022-10-28T19:38:58.737Z,68.92
2022-10-28T19:41:29.050Z,69.14
2022-10-28T19:43:59.834Z,69.60
2022-10-28T19:46:30.125Z,69.99
2022-10-28T19:49:00.445Z,69.55
2022-10-28T19:51:31.292Z,69.89
2022-10-28T19:54:01.518Z,70.09
2022-10-28T19:56:31.662Z,69.64
2022-10-28T19:59:01.784Z,70.04
2022-10-28T20:01:32.431Z,70.12
2022-10-28T20:04:00.968Z,70.28
2022-10-28T20:06:35.453Z,70.04
2022-10-28T20:09:04.876Z,69.47
2022-10-28T20:11:37.872Z,69.66
2022-10-28T20:14:09.982Z,70.06
2022-10-28T20:16:40.207Z,69.75
2022-10-28T20:19:08.647Z,69.92
2022-10-28T20:21:37.756Z,69.53
2022-10-28T20:24:07.159Z,68.52
2022-10-28T20:26:38.654Z,68.34
2022-10-28T20:29:10.078Z,68.06
2022-10-28T20:31:41.083Z,68.62
2022-10-28T20:34:09.173Z,68.13
2022-10-28T20:36:44.112Z,68.53
2022-10-28T20:39:17.994Z,69.07
2022-10-28T20:41:47.519Z,69.32
2022-10-28T20:44:16.311Z,69.04
2022-10-28T20:46:48.313Z,68.27
2022-10-28T20:49:16.740Z,69.03
2022-10-28T20:51:44.918Z,68.84
2022-10-28T20:54:12.895Z,69.08
2022-10-28T20:56:42.284Z,69.00
2022-10-28T20:59:10.609Z,69.09
2022-10-28T21:01:41.135Z,69.61
2022-10-28T21:04:11.541Z,70.18
2022-10-28T21:06:40.723Z,70.38
2022-10-28T21:09:09.088Z,70.48
2022-10-28T21:11:36.937Z,71.29
2022-10-28T21:14:04.934Z,71.68
2022-10-28T21:16:32.904Z,70.55
2022-10-28T21:19:01.033Z,70.07
2022-10-28T21:21:30.281Z,69.33
2022-10-28T21:24:00.602Z,68.88
2022-10-28T21:26:28.781Z,69.12
2022-10-28T21:28:56.746Z,69.54
2022-10-28T21:31:25.277Z,70.52
2022-10-28T21:33:53.721Z,70.48
2022-10-28T21:36:23.115Z,70.20
2022-10-28T21:38:57.671Z,70.04
2022-10-28T21:41:25.940Z,70.06
2022-10-28T21:43:55.207Z,71.25
2022-10-28T21:46:24.310Z,71.77
2022-10-28T21:48:52.787Z,71.38
2022-10-28T21:51:20.757Z,71.03
2022-10-28T21:53:49.040Z,71.36
2022-10-28T21:56:19.675Z,71.44
2022-10-28T21:58:49.415Z,71.11
2022-10-28T22:01:20.309Z,71.06
2022-10-28T22:03:48.655Z,71.75
2022-10-28T22:06:16.668Z,70.79
2022-10-28T22:08:45.040Z,70.93
2022-10-28T22:11:16.231Z,70.69
2022-10-28T22:13:45.276Z,70.55
2022-10-28T22:16:15.964Z,71.10
2022-10-28T22:18:45.059Z,71.19
2022-10-28T22:21:15.540Z,71.24
2022-10-28T22:23:43.916Z,71.59
2022-10-28T22:26:16.468Z,71.54
2022-10-28T22:28:45.281Z,71.85
2022-10-28T22:31:16.530Z,72.01
2022-10-28T22:36:20.427Z,71.59
2022-10-28T22:38:50.158Z,71.63
2022-10-28T22:41:22.257Z,71.86
2022-10-28T22:43:55.827Z,72.15
2022-10-28T22:46:26.380Z,72.14
2022-10-28T22:48:54.739Z,72.06
2022-10-28T22:51:23.014Z,72.08
2022-10-28T22:53:51.290Z,71.92
2022-10-28T22:56:22.238Z,72.29
2022-10-28T22:58:59.230Z,72.56
2022-10-28T23:01:29.371Z,72.41
2022-10-28T23:03:57.608Z,72.24
2022-10-28T23:06:27.437Z,72.21
2022-10-28T23:08:55.764Z,71.51
2022-10-28T23:11:23.888Z,72.54
2022-10-28T23:13:53.438Z,73.49
2022-10-28T23:16:22.928Z,73.54
2022-10-28T23:18:53.019Z,74.39
2022-10-28T23:21:23.645Z,74.39
2022-10-28T23:23:59.773Z,74.34
2022-10-28T23:26:29.617Z,74.63
2022-10-28T23:28:59.628Z,74.94
2022-10-28T23:31:28.348Z,74.63
2022-10-28T23:33:57.203Z,74.87
2022-10-28T23:36:25.586Z,74.73
2022-10-28T23:38:56.527Z,74.77
2022-10-28T23:41:24.597Z,74.71
2022-10-28T23:43:52.502Z,74.75
2022-10-28T23:46:21.351Z,74.95
2022-10-28T23:48:49.319Z,74.87
2022-10-28T23:51:19.441Z,74.43
2022-10-28T23:53:47.297Z,74.20
2022-10-28T23:56:15.276Z,74.06
2022-10-28T23:58:43.142Z,74.04
